Time;durP1;ratioP1;P1;durP2;ratioP2;P2;SDS_P1;SDS_P2;PMS_P1;PMS_P2;Temp;Humidity;BMP_temperature;BMP_pressure;BME280_temperature;BME280_humidity;BME280_pressure;Samples;Min_cycle;Max_cycle;Signal;HPM_P1;HPM_P2
2023/06/03 00:01:40;;;;;;;7.10;3.88;;;;;;;;;;5013455;28;20045;-82
2023/06/03 00:04:28;;;;;;;9.57;4.20;;;;;;;;;;5013648;28;20407;-83
2023/06/03 00:07:14;;;;;;;7.43;4.18;;;;;;;;;;5018335;28;20034;-83
2023/06/03 00:09:59;;;;;;;7.13;3.67;;;;;;;;;;5025807;28;20403;-81
2023/06/03 00:12:45;;;;;;;10.75;3.85;;;;;;;;;;5004953;28;20064;-81
2023/06/03 00:15:30;;;;;;;7.03;3.90;;;;;;;;;;5025689;28;20049;-83
2023/06/03 00:18:16;;;;;;;7.28;4.03;;;;;;;;;;5014571;28;20421;-83
2023/06/03 00:21:02;;;;;;;5.60;3.63;;;;;;;;;;5027367;28;20054;-82
2023/06/03 00:23:48;;;;;;;7.30;4.20;;;;;;;;;;5014966;28;20050;-82
2023/06/03 00:26:33;;;;;;;10.07;3.50;;;;;;;;;;5027313;28;20045;-81
2023/06/03 00:29:19;;;;;;;5.25;3.50;;;;;;;;;;5017190;28;20487;-82
2023/06/03 00:32:05;;;;;;;5.72;3.28;;;;;;;;;;5000256;28;20462;-84
2023/06/03 00:34:50;;;;;;;7.22;3.50;;;;;;;;;;5020765;28;20046;-83
2023/06/03 00:37:36;;;;;;;4.32;3.60;;;;;;;;;;5014721;28;20042;-83
2023/06/03 00:40:21;;;;;;;6.18;3.78;;;;;;;;;;5020592;28;20411;-83
2023/06/03 00:43:06;;;;;;;6.13;3.40;;;;;;;;;;5027572;28;20041;-81
2023/06/03 00:45:52;;;;;;;4.18;3.70;;;;;;;;;;5014312;28;20483;-84
2023/06/03 00:48:38;;;;;;;5.60;3.42;;;;;;;;;;4999750;28;20042;-82
2023/06/03 00:51:24;;;;;;;7.20;3.67;;;;;;;;;;5013598;28;20045;-83
2023/06/03 00:54:11;;;;;;;5.35;3.83;;;;;;;;;;5033862;28;20058;-83
2023/06/03 00:56:57;;;;;;;5.78;3.95;;;;;;;;;;5014206;28;20037;-83
2023/06/03 00:59:43;;;;;;;6.43;4.43;;;;;;;;;;5027334;28;20045;-82
2023/06/03 01:02:28;;;;;;;5.00;4.05;;;;;;;;;;5019379;28;20046;-83
2023/06/03 01:05:15;;;;;;;6.25;3.95;;;;;;;;;;5019729;28;20041;-83
2023/06/03 01:08:07;;;;;;;5.78;4.20;;;;;;;;;;5013781;28;20054;-82
2023/06/03 01:10:59;;;;;;;9.00;3.90;;;;;;;;;;5014162;28;20041;-82
2023/06/03 01:13:53;;;;;;;9.68;4.07;;;;;;;;;;5019313;28;20046;-83
2023/06/03 01:16:48;;;;;;;4.72;3.47;;;;;;;;;;5013813;28;20045;-82
2023/06/03 01:19:38;;;;;;;5.07;3.45;;;;;;;;;;5014150;28;20046;-82
2023/06/03 01:22:26;;;;;;;5.10;3.60;;;;;;;;;;5019201;28;20062;-83
2023/06/03 01:25:15;;;;;;;8.85;3.72;;;;;;;;;;5013756;28;20046;-82
2023/06/03 01:28:03;;;;;;;8.13;3.95;;;;;;;;;;4999044;28;20046;-83
2023/06/03 01:30:48;;;;;;;6.72;4.03;;;;;;;;;;5019341;28;20041;-82
2023/06/03 01:33:35;;;;;;;7.38;4.22;;;;;;;;;;5013934;28;20041;-82
2023/06/03 01:36:20;;;;;;;4.72;3.67;;;;;;;;;;5018827;28;20054;-82
2023/06/03 01:39:06;;;;;;;7.43;4.13;;;;;;;;;;5018928;28;20046;-82
2023/06/03 01:41:53;;;;;;;4.88;3.80;;;;;;;;;;5020499;28;20042;-82
2023/06/03 01:44:39;;;;;;;5.47;4.00;;;;;;;;;;5013392;28;20046;-82
2023/06/03 01:47:24;;;;;;;5.82;4.00;;;;;;;;;;5011519;28;20050;-82
2023/06/03 01:50:10;;;;;;;9.77;4.00;;;;;;;;;;5013429;28;20045;-82
2023/06/03 01:52:55;;;;;;;6.13;3.97;;;;;;;;;;5026528;28;20041;-82
2023/06/03 01:55:40;;;;;;;9.25;3.95;;;;;;;;;;5013393;28;20041;-82
2023/06/03 01:58:26;;;;;;;5.63;3.88;;;;;;;;;;5013740;28;20046;-82
2023/06/03 02:01:13;;;;;;;7.40;3.95;;;;;;;;;;5019101;28;20046;-82
2023/06/03 02:03:59;;;;;;;6.05;3.63;;;;;;;;;;5012737;28;20480;-81
2023/06/03 02:06:52;;;;;;;13.65;4.63;;;;;;;;;;5013955;28;20050;-82
2023/06/03 02:09:39;;;;;;;6.43;3.97;;;;;;;;;;5018751;28;20038;-82
2023/06/03 02:12:24;;;;;;;7.10;4.30;;;;;;;;;;4998622;28;20054;-82
2023/06/03 02:15:10;;;;;;;8.10;4.00;;;;;;;;;;5013103;28;20050;-83
2023/06/03 02:17:55;;;;;;;9.25;4.32;;;;;;;;;;5019204;28;20473;-82
2023/06/03 02:20:41;;;;;;;7.32;4.07;;;;;;;;;;5018894;28;20038;-82
2023/06/03 02:23:26;;;;;;;11.23;4.47;;;;;;;;;;5013283;28;20058;-82
2023/06/03 02:26:13;;;;;;;8.68;4.72;;;;;;;;;;5018537;28;20046;-83
2023/06/03 02:28:58;;;;;;;7.82;4.30;;;;;;;;;;5010446;28;20059;-82
2023/06/03 02:31:45;;;;;;;8.30;4.28;;;;;;;;;;4993483;28;20042;-82
2023/06/03 02:34:31;;;;;;;7.80;4.22;;;;;;;;;;4993908;28;20046;-83
2023/06/03 02:37:16;;;;;;;6.07;4.35;;;;;;;;;;4993470;28;20046;-85
2023/06/03 02:40:02;;;;;;;8.48;4.22;;;;;;;;;;4998743;28;20058;-85
2023/06/03 02:42:48;;;;;;;6.45;4.32;;;;;;;;;;5013126;28;20042;-84
2023/06/03 02:45:33;;;;;;;8.30;4.63;;;;;;;;;;5012794;28;20054;-85
2023/06/03 02:48:19;;;;;;;6.93;4.57;;;;;;;;;;5016419;28;20038;-83
2023/06/03 02:51:05;;;;;;;6.63;4.53;;;;;;;;;;5002682;28;20039;-87
2023/06/03 02:53:51;;;;;;;7.53;4.88;;;;;;;;;;4996760;28;20042;-83
2023/06/03 02:56:36;;;;;;;8.90;4.72;;;;;;;;;;5015332;28;20046;-86
2023/06/03 02:59:22;;;;;;;7.22;4.70;;;;;;;;;;4994737;28;20046;-84
2023/06/03 03:02:08;;;;;;;10.93;5.40;;;;;;;;;;4994561;28;20058;-84
2023/06/03 03:04:53;;;;;;;9.23;5.22;;;;;;;;;;5014448;28;20068;-83
2023/06/03 03:07:38;;;;;;;9.80;5.45;;;;;;;;;;5014391;28;20050;-84
2023/06/03 03:10:27;;;;;;;8.80;5.30;;;;;;;;;;5015281;28;20388;-84
2023/06/03 03:13:14;;;;;;;7.18;4.65;;;;;;;;;;5015177;28;20046;-82
2023/06/03 03:15:59;;;;;;;11.82;5.28;;;;;;;;;;5015922;28;20046;-82
2023/06/03 03:18:47;;;;;;;7.90;4.80;;;;;;;;;;5001530;28;20485;-82
2023/06/03 03:21:33;;;;;;;7.75;4.93;;;;;;;;;;5002719;28;20046;-83
2023/06/03 03:24:24;;;;;;;6.72;4.82;;;;;;;;;;5015173;28;20050;-83
2023/06/03 03:27:11;;;;;;;11.00;4.90;;;;;;;;;;5015777;28;20047;-84
2023/06/03 03:30:00;;;;;;;6.72;4.97;;;;;;;;;;5024785;28;20046;-84
2023/06/03 03:32:46;;;;;;;9.43;5.20;;;;;;;;;;5015726;28;20487;-82
2023/06/03 03:35:40;;;;;;;6.47;4.65;;;;;;;;;;5035386;28;20112;-82
2023/06/03 03:38:26;;;;;;;7.15;5.00;;;;;;;;;;5021733;28;20033;-82
2023/06/03 03:41:11;;;;;;;9.25;5.43;;;;;;;;;;5021482;28;20053;-82
2023/06/03 03:43:58;;;;;;;7.15;5.10;;;;;;;;;;5020573;28;20499;-82
2023/06/03 03:46:58;;;;;;;11.68;7.80;;;;;;;;;;5021284;28;20049;-84
2023/06/03 03:49:43;;;;;;;16.98;8.23;;;;;;;;;;5020642;28;20496;-82
2023/06/03 03:52:34;;;;;;;12.75;7.85;;;;;;;;;;5020612;28;20038;-84
2023/06/03 03:55:21;;;;;;;11.02;6.43;;;;;;;;;;5020881;28;20041;-82
2023/06/03 03:58:32;;;;;;;10.93;5.57;;;;;;;;;;5015139;28;20037;-84
2023/06/03 04:01:23;;;;;;;8.20;5.55;;;;;;;;;;5013492;28;20046;-83
2023/06/03 04:04:35;;;;;;;7.10;5.13;;;;;;;;;;5020461;28;20483;-82
2023/06/03 04:07:21;;;;;;;11.40;5.40;;;;;;;;;;5021311;28;20037;-82
2023/06/03 04:10:09;;;;;;;10.05;6.18;;;;;;;;;;5020711;28;20038;-83
2023/06/03 04:12:54;;;;;;;12.57;5.03;;;;;;;;;;5021016;28;20041;-82
2023/06/03 04:15:40;;;;;;;8.27;5.65;;;;;;;;;;5007317;28;20476;-82
2023/06/03 04:18:26;;;;;;;10.30;5.53;;;;;;;;;;5020453;28;20038;-82
2023/06/03 04:21:18;;;;;;;9.68;4.93;;;;;;;;;;5034378;28;20054;-83
2023/06/03 04:24:05;;;;;;;8.93;5.43;;;;;;;;;;5015790;28;20046;-83
2023/06/03 04:26:49;;;;;;;8.13;5.35;;;;;;;;;;5020289;28;20037;-82
2023/06/03 04:29:35;;;;;;;13.10;5.20;;;;;;;;;;5005781;28;20050;-81
2023/06/03 04:32:21;;;;;;;9.85;4.40;;;;;;;;;;5000591;28;20046;-82
2023/06/03 04:35:07;;;;;;;9.50;4.70;;;;;;;;;;5014276;28;20488;-83
2023/06/03 04:37:59;;;;;;;5.95;4.78;;;;;;;;;;5001464;28;20034;-83
2023/06/03 04:40:46;;;;;;;8.43;5.18;;;;;;;;;;5000451;28;20038;-83
2023/06/03 04:43:33;;;;;;;7.43;4.97;;;;;;;;;;5014085;28;20046;-83
2023/06/03 04:46:18;;;;;;;14.18;4.65;;;;;;;;;;5014838;28;20046;-83
2023/06/03 04:49:08;;;;;;;8.68;4.35;;;;;;;;;;5000086;28;20054;-83
2023/06/03 04:51:54;;;;;;;6.88;4.53;;;;;;;;;;5014404;28;20038;-83
2023/06/03 04:54:43;;;;;;;6.50;4.85;;;;;;;;;;4999563;28;20050;-83
2023/06/03 04:57:30;;;;;;;7.72;4.43;;;;;;;;;;4999783;28;20034;-83
2023/06/03 05:00:19;;;;;;;11.15;5.03;;;;;;;;;;5000780;28;20046;-83
2023/06/03 05:03:11;;;;;;;6.88;4.70;;;;;;;;;;5000101;28;20042;-83
2023/06/03 05:06:01;;;;;;;8.50;4.90;;;;;;;;;;5013697;28;20042;-83
2023/06/03 05:08:47;;;;;;;5.80;4.60;;;;;;;;;;4999005;28;20046;-84
2023/06/03 05:11:33;;;;;;;6.15;4.30;;;;;;;;;;5000144;28;20046;-83
2023/06/03 05:14:18;;;;;;;5.43;4.60;;;;;;;;;;5013744;28;20041;-83
2023/06/03 05:17:04;;;;;;;8.05;4.55;;;;;;;;;;5012610;28;20050;-83
2023/06/03 05:19:50;;;;;;;6.93;4.63;;;;;;;;;;4986124;28;20046;-84
2023/06/03 05:22:37;;;;;;;6.05;4.57;;;;;;;;;;4999896;28;20046;-83
2023/06/03 05:25:23;;;;;;;8.55;4.80;;;;;;;;;;5006322;28;20050;-83
2023/06/03 05:28:11;;;;;;;7.00;4.80;;;;;;;;;;4984977;28;20046;-84
2023/06/03 05:30:57;;;;;;;9.02;5.32;;;;;;;;;;5013315;28;20404;-83
2023/06/03 05:33:43;;;;;;;6.93;4.68;;;;;;;;;;4999642;28;20046;-83
2023/06/03 05:36:33;;;;;;;8.23;4.88;;;;;;;;;;4986310;28;20046;-83
2023/06/03 05:39:21;;;;;;;6.22;4.82;;;;;;;;;;4999913;28;20038;-84
2023/06/03 05:42:06;;;;;;;6.40;4.88;;;;;;;;;;5006962;28;20492;-83
2023/06/03 05:44:52;;;;;;;7.68;4.75;;;;;;;;;;4993308;28;20038;-84
2023/06/03 05:47:38;;;;;;;8.60;5.45;;;;;;;;;;4998179;28;20068;-84
2023/06/03 05:50:24;;;;;;;7.03;5.55;;;;;;;;;;4999920;28;20396;-84
2023/06/03 05:53:12;;;;;;;6.68;5.05;;;;;;;;;;4999537;28;20038;-84
2023/06/03 05:55:57;;;;;;;8.25;5.18;;;;;;;;;;4993800;28;20046;-83
2023/06/03 05:58:45;;;;;;;8.93;5.45;;;;;;;;;;4998872;28;20034;-84
2023/06/03 06:01:32;;;;;;;10.45;5.25;;;;;;;;;;4999906;28;20488;-85
2023/06/03 06:04:18;;;;;;;6.63;5.10;;;;;;;;;;4999181;28;20050;-85
2023/06/03 06:07:04;;;;;;;9.52;5.18;;;;;;;;;;4994233;28;20046;-84
2023/06/03 06:09:49;;;;;;;6.20;5.10;;;;;;;;;;5013009;28;20046;-84
2023/06/03 06:12:35;;;;;;;7.88;5.10;;;;;;;;;;4993913;28;20046;-84
2023/06/03 06:15:21;;;;;;;9.32;6.50;;;;;;;;;;4985627;28;20046;-84
2023/06/03 06:18:07;;;;;;;9.63;5.72;;;;;;;;;;5013225;28;20050;-84
2023/06/03 06:20:52;;;;;;;6.65;5.25;;;;;;;;;;5014866;28;20042;-84
2023/06/03 06:23:40;;;;;;;6.63;4.95;;;;;;;;;;5001515;28;20057;-85
2023/06/03 06:26:26;;;;;;;8.38;5.65;;;;;;;;;;4989004;28;20043;-84
2023/06/03 06:29:15;;;;;;;8.00;5.05;;;;;;;;;;5030032;28;20054;-83
2023/06/03 06:32:03;;;;;;;7.10;4.65;;;;;;;;;;5056188;28;20403;-85
2023/06/03 06:34:48;;;;;;;6.82;5.20;;;;;;;;;;5056267;28;20053;-84
2023/06/03 06:37:34;;;;;;;5.57;4.50;;;;;;;;;;5042195;28;20041;-84
2023/06/03 06:40:20;;;;;;;7.22;5.22;;;;;;;;;;5021796;28;20045;-85
2023/06/03 06:43:08;;;;;;;9.95;6.03;;;;;;;;;;5056065;28;20045;-84
2023/06/03 06:46:00;;;;;;;7.10;4.35;;;;;;;;;;5056072;28;20041;-83
2023/06/03 06:48:46;;;;;;;6.70;4.05;;;;;;;;;;5035497;28;20041;-83
2023/06/03 06:51:33;;;;;;;5.90;4.65;;;;;;;;;;5042104;28;20053;-82
2023/06/03 06:54:20;;;;;;;7.88;4.82;;;;;;;;;;5041997;28;20049;-83
2023/06/03 06:57:06;;;;;;;9.55;5.38;;;;;;;;;;5054899;28;20045;-84
2023/06/03 06:59:54;;;;;;;8.32;5.25;;;;;;;;;;5041406;28;20037;-85
2023/06/03 07:02:40;;;;;;;11.93;5.57;;;;;;;;;;5041962;28;20483;-84
2023/06/03 07:05:27;;;;;;;10.75;5.90;;;;;;;;;;5041733;28;20053;-83
2023/06/03 07:08:12;;;;;;;10.43;5.63;;;;;;;;;;5042068;28;20042;-84
2023/06/03 07:11:01;;;;;;;8.70;6.00;;;;;;;;;;5041444;28;20053;-83
2023/06/03 07:13:50;;;;;;;10.35;5.38;;;;;;;;;;5055293;28;20049;-84
2023/06/03 07:16:38;;;;;;;9.32;5.30;;;;;;;;;;5055319;28;20041;-83
2023/06/03 07:19:26;;;;;;;10.00;5.75;;;;;;;;;;5035997;28;20042;-84
2023/06/03 07:22:11;;;;;;;9.70;6.00;;;;;;;;;;5041587;28;20074;-83
2023/06/03 07:24:59;;;;;;;13.88;6.50;;;;;;;;;;5055872;28;20475;-85
2023/06/03 07:27:44;;;;;;;9.00;7.32;;;;;;;;;;5035708;28;20041;-84
2023/06/03 07:30:34;;;;;;;9.48;6.18;;;;;;;;;;5035214;28;20049;-84
2023/06/03 07:33:33;;;;;;;10.20;6.75;;;;;;;;;;5034443;28;20037;-83
2023/06/03 07:36:22;;;;;;;8.52;6.40;;;;;;;;;;5054869;28;20041;-84
2023/06/03 07:39:13;;;;;;;10.77;5.90;;;;;;;;;;5035615;28;20050;-83
2023/06/03 07:42:10;;;;;;;10.95;7.18;;;;;;;;;;5040263;28;20042;-84
2023/06/03 07:45:03;;;;;;;14.63;6.93;;;;;;;;;;5040096;28;20676;-85
2023/06/03 07:47:49;;;;;;;12.63;7.50;;;;;;;;;;5047524;28;20426;-84
2023/06/03 07:50:34;;;;;;;16.25;7.30;;;;;;;;;;5034928;28;20045;-83
2023/06/03 07:53:24;;;;;;;10.60;7.10;;;;;;;;;;5033865;28;20418;-85
2023/06/03 07:56:12;;;;;;;11.50;7.22;;;;;;;;;;5035534;28;20046;-83
2023/06/03 07:59:00;;;;;;;9.88;7.55;;;;;;;;;;5035000;28;20045;-85
2023/06/03 08:01:48;;;;;;;13.57;7.95;;;;;;;;;;5018979;28;20045;-84
2023/06/03 08:04:33;;;;;;;11.35;7.50;;;;;;;;;;5019735;28;20395;-82
2023/06/03 08:07:19;;;;;;;11.15;7.78;;;;;;;;;;5040734;28;20049;-80
2023/06/03 08:10:13;;;;;;;14.43;8.80;;;;;;;;;;5034871;28;20037;-80
2023/06/03 08:12:59;;;;;;;13.23;9.00;;;;;;;;;;5034935;28;20491;-81
2023/06/03 08:15:44;;;;;;;12.18;8.27;;;;;;;;;;5035086;28;20049;-85
2023/06/03 08:18:43;;;;;;;11.40;8.40;;;;;;;;;;5053985;28;20041;-79
2023/06/03 08:21:30;;;;;;;13.80;9.10;;;;;;;;;;5035120;28;20391;-81
2023/06/03 08:24:15;;;;;;;12.20;9.60;;;;;;;;;;5034593;28;20390;-78
2023/06/03 08:27:00;;;;;;;11.48;8.68;;;;;;;;;;5034103;28;20387;-80
2023/06/03 08:29:46;;;;;;;12.80;10.05;;;;;;;;;;5034670;28;20479;-79
2023/06/03 08:32:36;;;;;;;28.15;19.95;;;;;;;;;;5033992;28;20045;-78
2023/06/03 08:35:22;;;;;;;20.10;12.45;;;;;;;;;;5034737;28;20049;-79
2023/06/03 08:38:07;;;;;;;20.33;13.00;;;;;;;;;;5033428;28;20041;-80
2023/06/03 08:40:53;;;;;;;14.60;11.40;;;;;;;;;;5034256;28;20037;-80
2023/06/03 08:43:53;;;;;;;16.25;13.20;;;;;;;;;;5026246;28;20045;-80
2023/06/03 08:46:46;;;;;;;24.38;18.10;;;;;;;;;;5034231;28;20395;-79
2023/06/03 08:49:40;;;;;;;18.13;11.15;;;;;;;;;;5033598;28;20399;-78
2023/06/03 08:52:30;;;;;;;17.88;13.95;;;;;;;;;;5033971;28;20041;-79
2023/06/03 08:55:16;;;;;;;16.40;12.88;;;;;;;;;;5033450;28;20086;-77
2023/06/03 08:58:25;;;;;;;12.23;10.57;;;;;;;;;;5033510;28;20046;-81
2023/06/03 09:01:23;;;;;;;17.08;12.23;;;;;;;;;;5040550;28;20045;-84
2023/06/03 09:04:13;;;;;;;14.32;9.90;;;;;;;;;;5026859;28;20045;-84
2023/06/03 09:07:01;;;;;;;40.85;30.08;;;;;;;;;;5039283;28;20057;-82
2023/06/03 09:09:50;;;;;;;13.77;10.88;;;;;;;;;;5039691;28;20483;-84
2023/06/03 09:12:37;;;;;;;21.77;14.45;;;;;;;;;;5033729;28;20395;-83
2023/06/03 09:15:23;;;;;;;16.05;11.73;;;;;;;;;;5033279;28;20045;-84
2023/06/03 09:18:09;;;;;;;14.25;11.80;;;;;;;;;;5033709;28;20574;-84
2023/06/03 09:20:56;;;;;;;11.85;8.40;;;;;;;;;;5018936;28;20057;-83
2023/06/03 09:23:41;;;;;;;11.80;8.18;;;;;;;;;;5032826;28;20394;-81
2023/06/03 09:26:27;;;;;;;8.40;7.60;;;;;;;;;;5033854;28;20037;-81
2023/06/03 09:29:13;;;;;;;10.68;9.00;;;;;;;;;;5036223;28;20407;-80
2023/06/03 09:31:59;;;;;;;13.57;9.57;;;;;;;;;;5035583;28;20046;-81
2023/06/03 09:34:48;;;;;;;12.13;10.25;;;;;;;;;;5038746;28;20041;-80
2023/06/03 09:37:34;;;;;;;13.15;10.95;;;;;;;;;;5038854;28;20045;-79
2023/06/03 09:40:28;;;;;;;12.95;10.57;;;;;;;;;;5039986;28;20053;-79
2023/06/03 09:43:15;;;;;;;8.95;8.02;;;;;;;;;;5023853;28;20057;-80
2023/06/03 09:46:08;;;;;;;15.93;13.30;;;;;;;;;;5039401;28;20394;-80
2023/06/03 09:49:08;;;;;;;25.70;19.40;;;;;;;;;;5039702;28;20042;-80
2023/06/03 09:51:54;;;;;;;12.25;10.05;;;;;;;;;;5037858;28;20053;-81
2023/06/03 09:54:41;;;;;;;8.68;7.53;;;;;;;;;;5032681;28;20041;-82
2023/06/03 09:57:26;;;;;;;11.15;9.73;;;;;;;;;;5018552;28;20045;-81
2023/06/03 10:00:12;;;;;;;10.18;9.10;;;;;;;;;;5032849;28;20046;-81
2023/06/03 10:03:08;;;;;;;11.05;8.98;;;;;;;;;;5032487;28;20038;-86
2023/06/03 10:05:54;;;;;;;11.68;8.77;;;;;;;;;;5032678;28;20049;-83
2023/06/03 10:08:39;;;;;;;10.40;8.50;;;;;;;;;;5032762;28;20045;-84
2023/06/03 10:11:25;;;;;;;9.95;8.32;;;;;;;;;;5032542;28;20050;-83
2023/06/03 10:14:10;;;;;;;8.60;7.32;;;;;;;;;;5033308;28;20045;-85
2023/06/03 10:17:08;;;;;;;10.05;7.47;;;;;;;;;;5030818;28;20387;-80
2023/06/03 10:19:53;;;;;;;9.75;8.55;;;;;;;;;;5044887;28;20399;-83
2023/06/03 10:22:42;;;;;;;10.57;8.30;;;;;;;;;;5038242;28;20049;-85
2023/06/03 10:25:30;;;;;;;7.82;7.03;;;;;;;;;;5051459;28;20049;-83
2023/06/03 10:28:15;;;;;;;10.93;7.28;;;;;;;;;;5031698;28;20053;-84
2023/06/03 10:31:03;;;;;;;10.90;7.80;;;;;;;;;;5037982;28;20407;-84
2023/06/03 10:33:49;;;;;;;8.27;7.20;;;;;;;;;;5033161;28;20041;-84
2023/06/03 10:36:35;;;;;;;10.15;7.60;;;;;;;;;;5038285;28;20399;-84
2023/06/03 10:39:25;;;;;;;9.38;6.30;;;;;;;;;;5052020;28;20042;-83
2023/06/03 10:42:12;;;;;;;9.45;6.80;;;;;;;;;;5032556;28;20045;-82
2023/06/03 10:44:59;;;;;;;6.93;6.18;;;;;;;;;;5033261;28;20041;-81
2023/06/03 10:47:46;;;;;;;10.80;6.35;;;;;;;;;;5032574;28;20434;-81
2023/06/03 10:50:41;;;;;;;12.30;6.65;;;;;;;;;;5033149;28;20037;-82
2023/06/03 10:53:52;;;;;;;7.00;5.78;;;;;;;;;;5032927;28;20038;-82
2023/06/03 10:57:13;;;;;;;6.82;5.65;;;;;;;;;;5032254;28;20046;-85
2023/06/03 11:00:04;;;;;;;10.10;6.00;;;;;;;;;;4992027;28;20501;-86
2023/06/03 11:03:05;;;;;;;11.98;6.13;;;;;;;;;;5032067;28;20049;-85
2023/06/03 11:05:51;;;;;;;14.27;7.05;;;;;;;;;;5032988;28;20041;-85
2023/06/03 11:09:01;;;;;;;13.85;6.65;;;;;;;;;;5034851;28;20037;-82
2023/06/03 11:11:55;;;;;;;18.35;8.57;;;;;;;;;;5036348;28;20053;-82
2023/06/03 11:14:48;;;;;;;20.35;11.05;;;;;;;;;;5036394;28;20049;-83
2023/06/03 11:17:33;;;;;;;15.90;9.70;;;;;;;;;;5035399;28;20037;-82
2023/06/03 11:20:37;;;;;;;18.95;9.68;;;;;;;;;;5035923;28;20041;-83
2023/06/03 11:23:45;;;;;;;19.75;12.13;;;;;;;;;;5035854;28;20046;-84
2023/06/03 11:26:32;;;;;;;16.63;11.05;;;;;;;;;;5034867;28;20053;-82
2023/06/03 11:29:51;;;;;;;17.65;9.70;;;;;;;;;;5035728;28;20049;-81
2023/06/03 11:32:38;;;;;;;17.02;12.73;;;;;;;;;;5057554;28;20042;-81
2023/06/03 11:35:28;;;;;;;16.35;10.45;;;;;;;;;;5042659;28;20049;-80
2023/06/03 11:38:14;;;;;;;15.90;9.80;;;;;;;;;;5039740;28;20037;-82
2023/06/03 11:41:00;;;;;;;15.45;11.70;;;;;;;;;;5037392;28;20046;-81
2023/06/03 11:44:20;;;;;;;17.90;10.57;;;;;;;;;;5035827;28;20414;-81
2023/06/03 11:47:05;;;;;;;15.25;10.35;;;;;;;;;;5037278;28;20046;-81
2023/06/03 11:49:51;;;;;;;24.85;15.07;;;;;;;;;;5037000;28;20037;-80
2023/06/03 11:52:36;;;;;;;23.40;12.70;;;;;;;;;;5036829;28;20037;-80
2023/06/03 11:55:27;;;;;;;29.88;16.50;;;;;;;;;;5037076;28;20041;-79
2023/06/03 11:58:14;;;;;;;23.83;13.07;;;;;;;;;;5035321;28;20049;-81
2023/06/03 12:01:11;;;;;;;18.25;12.00;;;;;;;;;;5051998;28;20045;-81
2023/06/03 12:04:01;;;;;;;14.15;8.23;;;;;;;;;;5034341;28;20045;-81
2023/06/03 12:06:46;;;;;;;24.45;13.75;;;;;;;;;;5034872;28;20041;-81
2023/06/03 12:09:32;;;;;;;23.67;12.05;;;;;;;;;;5034708;28;20057;-81
2023/06/03 12:12:18;;;;;;;20.80;13.05;;;;;;;;;;5035218;28;20487;-81
2023/06/03 12:15:05;;;;;;;18.15;11.45;;;;;;;;;;5034707;28;20049;-81
2023/06/03 12:17:51;;;;;;;17.20;10.50;;;;;;;;;;5047476;28;20041;-83
2023/06/03 12:20:37;;;;;;;9.73;7.70;;;;;;;;;;5035100;28;20046;-78
2023/06/03 12:23:22;;;;;;;11.77;8.80;;;;;;;;;;5033897;28;20041;-77
2023/06/03 12:26:08;;;;;;;13.50;8.00;;;;;;;;;;5034439;28;20479;-77
2023/06/03 12:29:08;;;;;;;10.48;8.18;;;;;;;;;;5034048;28;20053;-78
2023/06/03 12:31:58;;;;;;;11.32;8.55;;;;;;;;;;5033926;28;20053;-78
2023/06/03 12:34:45;;;;;;;13.80;8.90;;;;;;;;;;5034042;28;20476;-77
2023/06/03 12:37:33;;;;;;;8.30;6.15;;;;;;;;;;5033568;28;20046;-78
2023/06/03 12:40:23;;;;;;;8.85;5.55;;;;;;;;;;5035519;28;20483;-79
2023/06/03 12:43:20;;;;;;;6.18;5.50;;;;;;;;;;5035118;28;20041;-79
2023/06/03 12:46:18;;;;;;;7.93;5.95;;;;;;;;;;5040550;28;20049;-79
2023/06/03 12:49:19;;;;;;;8.77;5.88;;;;;;;;;;5036749;28;20805;-79
2023/06/03 12:52:13;;;;;;;7.18;5.45;;;;;;;;;;5034361;28;20045;-79
2023/06/03 12:54:59;;;;;;;6.60;5.03;;;;;;;;;;5034022;28;20045;-79
2023/06/03 12:57:46;;;;;;;7.45;5.53;;;;;;;;;;5036620;28;20628;-80
2023/06/03 13:00:32;;;;;;;6.47;5.82;;;;;;;;;;5027195;28;20045;-80
2023/06/03 13:03:18;;;;;;;7.40;5.88;;;;;;;;;;5035225;28;20037;-79
2023/06/03 13:06:04;;;;;;;9.40;6.32;;;;;;;;;;5035338;28;20045;-79
2023/06/03 13:08:51;;;;;;;8.05;6.45;;;;;;;;;;5035028;28;20041;-78
2023/06/03 13:11:36;;;;;;;10.75;6.80;;;;;;;;;;5054235;28;20053;-79
2023/06/03 13:14:23;;;;;;;9.82;6.78;;;;;;;;;;5026127;28;20045;-83
2023/06/03 13:17:08;;;;;;;10.80;7.38;;;;;;;;;;5034394;28;20049;-83
2023/06/03 13:19:54;;;;;;;11.23;7.90;;;;;;;;;;5019264;28;20041;-84
2023/06/03 13:22:40;;;;;;;15.00;9.90;;;;;;;;;;5033976;28;20429;-83
2023/06/03 13:25:26;;;;;;;12.30;9.18;;;;;;;;;;5034845;28;20045;-84
2023/06/03 13:28:12;;;;;;;13.15;9.45;;;;;;;;;;5034531;28;20053;-83
2023/06/03 13:30:57;;;;;;;14.02;9.38;;;;;;;;;;5032835;28;20403;-83
2023/06/03 13:33:43;;;;;;;11.00;8.68;;;;;;;;;;5038641;28;20145;-79
2023/06/03 13:36:28;;;;;;;14.20;7.82;;;;;;;;;;5032906;28;20037;-79
2023/06/03 13:39:14;;;;;;;12.20;8.85;;;;;;;;;;5033479;28;20041;-81
2023/06/03 13:42:02;;;;;;;14.10;9.68;;;;;;;;;;5033237;28;20398;-85
2023/06/03 13:44:53;;;;;;;12.80;8.82;;;;;;;;;;5033706;28;20045;-84
2023/06/03 13:47:38;;;;;;;15.77;11.05;;;;;;;;;;5045798;28;20045;-84
2023/06/03 13:50:27;;;;;;;14.48;10.93;;;;;;;;;;5038741;28;20497;-84
2023/06/03 13:53:13;;;;;;;17.92;11.02;;;;;;;;;;5046132;28;20049;-81
2023/06/03 13:55:58;;;;;;;18.60;11.93;;;;;;;;;;5039199;28;20041;-81
2023/06/03 13:58:44;;;;;;;16.02;11.77;;;;;;;;;;5033133;28;20045;-89
2023/06/03 14:01:30;;;;;;;14.40;12.25;;;;;;;;;;5032344;28;20045;-87
2023/06/03 14:04:15;;;;;;;14.40;11.55;;;;;;;;;;5018320;28;20041;-85
2023/06/03 14:07:00;;;;;;;22.83;16.55;;;;;;;;;;5032814;28;20395;-80
2023/06/03 14:09:46;;;;;;;19.73;15.45;;;;;;;;;;5033208;28;20041;-80
2023/06/03 14:12:32;;;;;;;19.90;16.60;;;;;;;;;;5032639;28;20037;-81
2023/06/03 14:15:18;;;;;;;16.13;12.95;;;;;;;;;;5033033;28;20061;-81
2023/06/03 14:18:03;;;;;;;21.85;16.67;;;;;;;;;;5032294;28;20049;-81
2023/06/03 14:20:49;;;;;;;26.10;19.15;;;;;;;;;;5033976;28;20034;-81
2023/06/03 14:23:34;;;;;;;25.65;18.23;;;;;;;;;;5033107;28;20045;-81
2023/06/03 14:26:21;;;;;;;29.83;19.38;;;;;;;;;;5032895;28;20045;-81
2023/06/03 14:29:09;;;;;;;22.77;18.08;;;;;;;;;;5033164;28;20054;-81
2023/06/03 14:31:55;;;;;;;23.00;17.83;;;;;;;;;;5032880;28;20088;-82
2023/06/03 14:34:41;;;;;;;20.35;15.95;;;;;;;;;;5032594;28;20503;-81
2023/06/03 14:37:26;;;;;;;20.38;17.27;;;;;;;;;;5032931;28;20048;-80
2023/06/03 14:40:12;;;;;;;23.20;18.55;;;;;;;;;;5032910;28;20041;-80
2023/06/03 14:42:57;;;;;;;24.85;17.88;;;;;;;;;;5036368;28;20395;-81
2023/06/03 14:45:43;;;;;;;21.02;17.38;;;;;;;;;;5036874;28;20407;-82
2023/06/03 14:48:28;;;;;;;24.10;17.85;;;;;;;;;;5036304;28;20503;-81
2023/06/03 14:51:14;;;;;;;21.33;16.88;;;;;;;;;;5036761;28;20041;-82
2023/06/03 14:54:00;;;;;;;24.85;17.35;;;;;;;;;;5036800;28;20037;-81
2023/06/03 14:56:45;;;;;;;27.63;18.77;;;;;;;;;;5036194;28;20041;-81
2023/06/03 14:59:33;;;;;;;26.48;17.35;;;;;;;;;;5035753;28;20418;-80
2023/06/03 15:02:18;;;;;;;26.75;18.08;;;;;;;;;;5035657;28;20487;-81
2023/06/03 15:05:04;;;;;;;21.92;17.27;;;;;;;;;;5036104;28;20045;-81
2023/06/03 15:07:49;;;;;;;26.50;19.33;;;;;;;;;;5036567;28;20049;-81
2023/06/03 15:10:48;;;;;;;31.40;21.40;;;;;;;;;;5036708;28;20049;-81
2023/06/03 15:13:35;;;;;;;24.20;17.65;;;;;;;;;;5035599;28;20049;-81
2023/06/03 15:16:20;;;;;;;19.08;15.30;;;;;;;;;;5035935;28;20396;-82
2023/06/03 15:19:06;;;;;;;23.90;15.98;;;;;;;;;;5036172;28;20053;-81
2023/06/03 15:21:52;;;;;;;20.10;15.18;;;;;;;;;;5036048;28;20045;-82
2023/06/03 15:24:38;;;;;;;34.35;18.10;;;;;;;;;;5036075;28;20045;-81
2023/06/03 15:27:23;;;;;;;19.85;14.35;;;;;;;;;;5035967;28;20498;-80
2023/06/03 15:30:09;;;;;;;22.48;14.70;;;;;;;;;;5034839;28;20041;-81
2023/06/03 15:32:55;;;;;;;28.27;18.05;;;;;;;;;;5034910;28;20037;-81
2023/06/03 15:35:40;;;;;;;21.25;15.85;;;;;;;;;;5040000;28;20049;-82
2023/06/03 15:38:26;;;;;;;23.98;16.83;;;;;;;;;;5035726;28;20041;-81
2023/06/03 15:41:11;;;;;;;24.70;16.00;;;;;;;;;;5035208;28;20049;-81
2023/06/03 15:43:57;;;;;;;14.32;11.80;;;;;;;;;;5035464;28;20038;-81
2023/06/03 15:46:42;;;;;;;15.48;11.75;;;;;;;;;;5035947;28;20065;-81
2023/06/03 15:49:27;;;;;;;20.58;13.75;;;;;;;;;;5035381;28;20387;-81
2023/06/03 15:52:13;;;;;;;20.13;13.13;;;;;;;;;;5035309;28;20041;-81
2023/06/03 15:54:58;;;;;;;16.33;12.93;;;;;;;;;;5034935;28;20037;-79
2023/06/03 15:57:43;;;;;;;20.20;13.00;;;;;;;;;;5035643;28;20041;-81
2023/06/03 16:00:28;;;;;;;21.60;14.50;;;;;;;;;;5035173;28;20483;-81
2023/06/03 16:03:14;;;;;;;21.33;14.10;;;;;;;;;;5035255;28;20045;-81
2023/06/03 16:06:00;;;;;;;22.42;16.10;;;;;;;;;;5034556;28;20045;-80
2023/06/03 16:08:45;;;;;;;29.42;19.02;;;;;;;;;;5036373;28;20054;-80
2023/06/03 16:11:31;;;;;;;25.70;16.02;;;;;;;;;;5033960;28;20049;-82
2023/06/03 16:14:17;;;;;;;24.10;16.65;;;;;;;;;;5032886;28;20688;-80
2023/06/03 16:17:09;;;;;;;21.13;14.57;;;;;;;;;;5032826;28;20045;-87
2023/06/03 16:19:55;;;;;;;29.42;17.10;;;;;;;;;;5047249;28;20049;-81
2023/06/03 16:22:42;;;;;;;21.67;15.82;;;;;;;;;;5035027;28;20045;-81
2023/06/03 16:25:43;;;;;;;15.75;11.77;;;;;;;;;;5034776;28;20057;-86
2023/06/03 16:28:47;;;;;;;20.80;12.98;;;;;;;;;;5020780;28;20049;-87
2023/06/03 16:31:33;;;;;;;11.98;7.50;;;;;;;;;;5032956;28;20045;-83
2023/06/03 16:34:18;;;;;;;14.80;9.57;;;;;;;;;;5033267;28;20041;-83
2023/06/03 16:37:04;;;;;;;7.72;4.40;;;;;;;;;;5025472;28;20403;-81